Capitol Logistics 3267




KDAB
Daytona Beach International Airport
Daytona Beach, Florida
KMIA
Miami International Airport
Miami, Florida

Activity Log

Date Flight Route Aircraft Duration
03/28/2021 CPX3267 LAMMA7 BITHO AWINY V437 PIONN EPENY SF34 1h 05m
08/30/2020 CPX3267 MYRA V3 MLB V437 PHK V267 BRIKL SF34 1h 31m
01/04/2020 CPX3267 OMN HILEY7 SF34 1h 09m
11/05/2019 CPX667 MYRA V3 MLB V437 PHK V267 BRIKL SF34 1h 24m

Route Details

Aircraft Information
Primary: Saab 340AF
Backup: Not Available
Route Data
Distance: 207nm
Duration: 1h 39m
Recm'd Route: MYRA V3 MLB V437 PHK V267 BRIKL
Origin Wx: KDAB 141853Z 11009KT 10SM FEW040 SCT250 28/17 A3008 RMK AO2 SLP184 T02780167
Dest. Wx: KMIA 141853Z 12015G18KT 10SM FEW035 28/17 A3007 RMK AO2 SLP184 T02780172
Notes: